sensor_id;sensor_type;location;lat;lon;timestamp;P1;durP1;ratioP1;P2;durP2;ratioP2
20478;SDS011;10398;52.490;13.434;2024-01-11T00:01:46;9.73;;;2.80;;
20478;SDS011;10398;52.490;13.434;2024-01-11T00:04:12;5.60;;;3.17;;
20478;SDS011;10398;52.490;13.434;2024-01-11T00:06:42;4.43;;;2.17;;
20478;SDS011;10398;52.490;13.434;2024-01-11T00:09:08;7.67;;;3.00;;
20478;SDS011;10398;52.490;13.434;2024-01-11T00:11:34;5.93;;;2.47;;
20478;SDS011;10398;52.490;13.434;2024-01-11T00:13:59;11.37;;;3.87;;
20478;SDS011;10398;52.490;13.434;2024-01-11T00:16:25;8.57;;;3.90;;
20478;SDS011;10398;52.490;13.434;2024-01-11T00:18:51;9.27;;;4.07;;
20478;SDS011;10398;52.490;13.434;2024-01-11T00:21:17;6.73;;;2.53;;
20478;SDS011;10398;52.490;13.434;2024-01-11T00:23:42;7.80;;;2.87;;
20478;SDS011;10398;52.490;13.434;2024-01-11T00:26:08;5.60;;;3.33;;
20478;SDS011;10398;52.490;13.434;2024-01-11T00:28:36;5.60;;;2.90;;
20478;SDS011;10398;52.490;13.434;2024-01-11T00:31:02;4.60;;;2.73;;
20478;SDS011;10398;52.490;13.434;2024-01-11T00:33:28;7.83;;;2.03;;
20478;SDS011;10398;52.490;13.434;2024-01-11T00:35:53;9.77;;;2.60;;
20478;SDS011;10398;52.490;13.434;2024-01-11T00:38:19;6.80;;;2.77;;
20478;SDS011;10398;52.490;13.434;2024-01-11T00:40:45;4.03;;;1.80;;
20478;SDS011;10398;52.490;13.434;2024-01-11T00:43:10;5.53;;;1.93;;
20478;SDS011;10398;52.490;13.434;2024-01-11T00:45:36;6.90;;;1.40;;
20478;SDS011;10398;52.490;13.434;2024-01-11T00:48:03;1.50;;;1.27;;
20478;SDS011;10398;52.490;13.434;2024-01-11T00:50:29;8.53;;;2.07;;
20478;SDS011;10398;52.490;13.434;2024-01-11T00:52:55;4.90;;;2.03;;
20478;SDS011;10398;52.490;13.434;2024-01-11T00:55:20;5.10;;;2.13;;
20478;SDS011;10398;52.490;13.434;2024-01-11T00:57:46;6.17;;;2.10;;
20478;SDS011;10398;52.490;13.434;2024-01-11T01:00:12;7.80;;;2.73;;
20478;SDS011;10398;52.490;13.434;2024-01-11T01:02:41;5.17;;;2.77;;
20478;SDS011;10398;52.490;13.434;2024-01-11T01:05:06;5.83;;;3.47;;
20478;SDS011;10398;52.490;13.434;2024-01-11T01:07:32;5.43;;;3.13;;
20478;SDS011;10398;52.490;13.434;2024-01-11T01:09:58;3.50;;;1.93;;
20478;SDS011;10398;52.490;13.434;2024-01-11T01:12:23;6.73;;;3.13;;
20478;SDS011;10398;52.490;13.434;2024-01-11T01:14:52;3.90;;;2.33;;
20478;SDS011;10398;52.490;13.434;2024-01-11T01:17:17;2.93;;;2.37;;
20478;SDS011;10398;52.490;13.434;2024-01-11T01:19:44;3.33;;;2.20;;
20478;SDS011;10398;52.490;13.434;2024-01-11T01:22:09;8.27;;;2.33;;
20478;SDS011;10398;52.490;13.434;2024-01-11T01:24:35;8.23;;;3.27;;
20478;SDS011;10398;52.490;13.434;2024-01-11T01:27:01;13.23;;;4.60;;
20478;SDS011;10398;52.490;13.434;2024-01-11T01:29:27;10.33;;;4.50;;
20478;SDS011;10398;52.490;13.434;2024-01-11T01:31:53;12.83;;;4.40;;
20478;SDS011;10398;52.490;13.434;2024-01-11T01:34:18;11.03;;;4.73;;
20478;SDS011;10398;52.490;13.434;2024-01-11T01:36:44;9.00;;;3.87;;
20478;SDS011;10398;52.490;13.434;2024-01-11T01:39:10;10.40;;;4.47;;
20478;SDS011;10398;52.490;13.434;2024-01-11T01:41:36;13.13;;;4.53;;
20478;SDS011;10398;52.490;13.434;2024-01-11T01:44:02;14.43;;;5.10;;
20478;SDS011;10398;52.490;13.434;2024-01-11T01:46:28;13.73;;;5.00;;
20478;SDS011;10398;52.490;13.434;2024-01-11T01:48:54;15.30;;;4.83;;
20478;SDS011;10398;52.490;13.434;2024-01-11T01:51:22;3.63;;;1.70;;
20478;SDS011;10398;52.490;13.434;2024-01-11T01:53:51;2.37;;;1.27;;
20478;SDS011;10398;52.490;13.434;2024-01-11T01:56:19;10.27;;;3.87;;
20478;SDS011;10398;52.490;13.434;2024-01-11T01:58:46;12.33;;;4.67;;
20478;SDS011;10398;52.490;13.434;2024-01-11T02:01:13;11.00;;;4.60;;
20478;SDS011;10398;52.490;13.434;2024-01-11T02:03:39;9.57;;;3.77;;
20478;SDS011;10398;52.490;13.434;2024-01-11T02:06:05;13.13;;;4.17;;
20478;SDS011;10398;52.490;13.434;2024-01-11T02:08:32;12.63;;;3.60;;
20478;SDS011;10398;52.490;13.434;2024-01-11T02:10:59;11.77;;;4.17;;
20478;SDS011;10398;52.490;13.434;2024-01-11T02:13:26;6.73;;;3.57;;
20478;SDS011;10398;52.490;13.434;2024-01-11T02:15:51;11.83;;;4.00;;
20478;SDS011;10398;52.490;13.434;2024-01-11T02:18:17;10.27;;;3.73;;
20478;SDS011;10398;52.490;13.434;2024-01-11T02:20:43;10.07;;;3.47;;
20478;SDS011;10398;52.490;13.434;2024-01-11T02:23:12;10.17;;;3.73;;
20478;SDS011;10398;52.490;13.434;2024-01-11T02:25:42;8.93;;;3.53;;
20478;SDS011;10398;52.490;13.434;2024-01-11T02:28:08;10.17;;;3.50;;
20478;SDS011;10398;52.490;13.434;2024-01-11T02:30:34;9.97;;;3.47;;
20478;SDS011;10398;52.490;13.434;2024-01-11T02:32:59;11.87;;;3.67;;
20478;SDS011;10398;52.490;13.434;2024-01-11T02:35:26;10.87;;;3.83;;
20478;SDS011;10398;52.490;13.434;2024-01-11T02:37:53;10.93;;;4.20;;
20478;SDS011;10398;52.490;13.434;2024-01-11T02:40:19;14.10;;;4.07;;
20478;SDS011;10398;52.490;13.434;2024-01-11T02:42:45;13.97;;;4.10;;
20478;SDS011;10398;52.490;13.434;2024-01-11T02:45:11;12.20;;;4.23;;
20478;SDS011;10398;52.490;13.434;2024-01-11T02:47:38;12.00;;;4.20;;
20478;SDS011;10398;52.490;13.434;2024-01-11T02:50:04;11.97;;;4.10;;
20478;SDS011;10398;52.490;13.434;2024-01-11T02:52:30;12.40;;;4.80;;
20478;SDS011;10398;52.490;13.434;2024-01-11T02:54:56;9.27;;;4.00;;
20478;SDS011;10398;52.490;13.434;2024-01-11T02:57:22;14.80;;;5.30;;
20478;SDS011;10398;52.490;13.434;2024-01-11T02:59:47;15.63;;;4.47;;
20478;SDS011;10398;52.490;13.434;2024-01-11T03:02:14;12.17;;;4.73;;
20478;SDS011;10398;52.490;13.434;2024-01-11T03:04:39;13.57;;;4.73;;
20478;SDS011;10398;52.490;13.434;2024-01-11T03:07:05;6.73;;;3.03;;
20478;SDS011;10398;52.490;13.434;2024-01-11T03:09:31;3.40;;;1.63;;
20478;SDS011;10398;52.490;13.434;2024-01-11T03:11:56;3.90;;;1.60;;
20478;SDS011;10398;52.490;13.434;2024-01-11T03:14:22;2.90;;;1.80;;
20478;SDS011;10398;52.490;13.434;2024-01-11T03:16:48;4.27;;;1.80;;
20478;SDS011;10398;52.490;13.434;2024-01-11T03:19:13;6.70;;;2.53;;
20478;SDS011;10398;52.490;13.434;2024-01-11T03:21:43;4.67;;;2.40;;
20478;SDS011;10398;52.490;13.434;2024-01-11T03:24:09;12.87;;;4.57;;
20478;SDS011;10398;52.490;13.434;2024-01-11T03:26:35;15.60;;;4.43;;
20478;SDS011;10398;52.490;13.434;2024-01-11T03:29:00;11.80;;;4.40;;
20478;SDS011;10398;52.490;13.434;2024-01-11T03:31:26;11.37;;;3.93;;
20478;SDS011;10398;52.490;13.434;2024-01-11T03:33:51;9.53;;;4.33;;
20478;SDS011;10398;52.490;13.434;2024-01-11T03:36:17;10.23;;;3.37;;
20478;SDS011;10398;52.490;13.434;2024-01-11T03:38:43;6.90;;;2.50;;
20478;SDS011;10398;52.490;13.434;2024-01-11T03:41:08;5.80;;;1.67;;
20478;SDS011;10398;52.490;13.434;2024-01-11T03:43:35;5.53;;;1.33;;
20478;SDS011;10398;52.490;13.434;2024-01-11T03:46:01;3.43;;;1.23;;
20478;SDS011;10398;52.490;13.434;2024-01-11T03:48:27;3.23;;;1.33;;
20478;SDS011;10398;52.490;13.434;2024-01-11T03:50:53;4.57;;;1.83;;
20478;SDS011;10398;52.490;13.434;2024-01-11T03:53:19;3.30;;;1.80;;
20478;SDS011;10398;52.490;13.434;2024-01-11T03:55:45;3.53;;;1.20;;
20478;SDS011;10398;52.490;13.434;2024-01-11T03:58:10;6.57;;;1.00;;
20478;SDS011;10398;52.490;13.434;2024-01-11T04:00:36;2.07;;;1.37;;
20478;SDS011;10398;52.490;13.434;2024-01-11T04:03:02;3.37;;;2.00;;
20478;SDS011;10398;52.490;13.434;2024-01-11T04:05:27;2.40;;;1.43;;
20478;SDS011;10398;52.490;13.434;2024-01-11T04:07:53;2.67;;;1.13;;
20478;SDS011;10398;52.490;13.434;2024-01-11T04:10:19;3.23;;;1.10;;
20478;SDS011;10398;52.490;13.434;2024-01-11T04:12:44;4.13;;;2.27;;
20478;SDS011;10398;52.490;13.434;2024-01-11T04:15:13;6.33;;;2.43;;
20478;SDS011;10398;52.490;13.434;2024-01-11T04:17:39;4.27;;;2.17;;
20478;SDS011;10398;52.490;13.434;2024-01-11T04:20:05;5.60;;;2.83;;
20478;SDS011;10398;52.490;13.434;2024-01-11T04:22:32;3.07;;;1.43;;
20478;SDS011;10398;52.490;13.434;2024-01-11T04:24:57;5.90;;;1.27;;
20478;SDS011;10398;52.490;13.434;2024-01-11T04:27:23;7.47;;;2.63;;
20478;SDS011;10398;52.490;13.434;2024-01-11T04:29:49;7.27;;;1.47;;
20478;SDS011;10398;52.490;13.434;2024-01-11T04:32:14;8.00;;;2.03;;
20478;SDS011;10398;52.490;13.434;2024-01-11T04:34:40;2.87;;;1.90;;
20478;SDS011;10398;52.490;13.434;2024-01-11T04:37:06;3.60;;;1.27;;
20478;SDS011;10398;52.490;13.434;2024-01-11T04:39:32;5.80;;;2.23;;
20478;SDS011;10398;52.490;13.434;2024-01-11T04:41:58;5.43;;;2.47;;
20478;SDS011;10398;52.490;13.434;2024-01-11T04:44:24;6.83;;;2.17;;
20478;SDS011;10398;52.490;13.434;2024-01-11T04:46:49;6.07;;;2.23;;
20478;SDS011;10398;52.490;13.434;2024-01-11T04:49:15;11.30;;;3.30;;
20478;SDS011;10398;52.490;13.434;2024-01-11T04:51:41;8.43;;;2.53;;
20478;SDS011;10398;52.490;13.434;2024-01-11T04:54:06;10.07;;;2.27;;
20478;SDS011;10398;52.490;13.434;2024-01-11T04:56:32;5.80;;;2.13;;
20478;SDS011;10398;52.490;13.434;2024-01-11T04:58:57;7.43;;;2.47;;
20478;SDS011;10398;52.490;13.434;2024-01-11T05:01:23;3.60;;;1.87;;
20478;SDS011;10398;52.490;13.434;2024-01-11T05:03:49;10.30;;;2.37;;
20478;SDS011;10398;52.490;13.434;2024-01-11T05:06:18;7.50;;;2.90;;
20478;SDS011;10398;52.490;13.434;2024-01-11T05:08:49;4.33;;;2.73;;
20478;SDS011;10398;52.490;13.434;2024-01-11T05:11:19;11.63;;;3.03;;
20478;SDS011;10398;52.490;13.434;2024-01-11T05:13:51;8.47;;;2.67;;
20478;SDS011;10398;52.490;13.434;2024-01-11T05:16:21;9.63;;;3.37;;
20478;SDS011;10398;52.490;13.434;2024-01-11T05:18:56;6.20;;;1.97;;
20478;SDS011;10398;52.490;13.434;2024-01-11T05:21:23;6.07;;;2.30;;
20478;SDS011;10398;52.490;13.434;2024-01-11T05:23:49;9.23;;;2.13;;
20478;SDS011;10398;52.490;13.434;2024-01-11T05:26:16;7.73;;;1.87;;
20478;SDS011;10398;52.490;13.434;2024-01-11T05:28:42;12.33;;;2.97;;
20478;SDS011;10398;52.490;13.434;2024-01-11T05:31:11;7.20;;;3.63;;
20478;SDS011;10398;52.490;13.434;2024-01-11T05:33:39;9.17;;;4.00;;
20478;SDS011;10398;52.490;13.434;2024-01-11T05:36:05;9.77;;;3.00;;
20478;SDS011;10398;52.490;13.434;2024-01-11T05:38:32;10.17;;;2.37;;
20478;SDS011;10398;52.490;13.434;2024-01-11T05:40:58;7.00;;;2.57;;
20478;SDS011;10398;52.490;13.434;2024-01-11T05:43:23;12.90;;;3.00;;
20478;SDS011;10398;52.490;13.434;2024-01-11T05:45:49;9.73;;;3.40;;
20478;SDS011;10398;52.490;13.434;2024-01-11T05:48:15;8.53;;;3.70;;
20478;SDS011;10398;52.490;13.434;2024-01-11T05:50:42;7.63;;;2.90;;
20478;SDS011;10398;52.490;13.434;2024-01-11T05:53:08;6.10;;;3.17;;
20478;SDS011;10398;52.490;13.434;2024-01-11T05:55:34;15.43;;;3.57;;
20478;SDS011;10398;52.490;13.434;2024-01-11T05:58:00;14.47;;;3.53;;
20478;SDS011;10398;52.490;13.434;2024-01-11T06:00:26;17.07;;;3.70;;
20478;SDS011;10398;52.490;13.434;2024-01-11T06:02:51;18.87;;;4.83;;
20478;SDS011;10398;52.490;13.434;2024-01-11T06:05:17;13.87;;;3.43;;
20478;SDS011;10398;52.490;13.434;2024-01-11T06:07:43;10.07;;;2.93;;
20478;SDS011;10398;52.490;13.434;2024-01-11T06:10:08;9.67;;;3.00;;
20478;SDS011;10398;52.490;13.434;2024-01-11T06:12:35;10.47;;;3.10;;
20478;SDS011;10398;52.490;13.434;2024-01-11T06:15:01;5.57;;;2.63;;
20478;SDS011;10398;52.490;13.434;2024-01-11T06:17:27;16.37;;;2.83;;
20478;SDS011;10398;52.490;13.434;2024-01-11T06:19:53;9.07;;;2.83;;
20478;SDS011;10398;52.490;13.434;2024-01-11T06:22:20;9.63;;;3.27;;
20478;SDS011;10398;52.490;13.434;2024-01-11T06:24:46;11.13;;;3.37;;
20478;SDS011;10398;52.490;13.434;2024-01-11T06:27:11;7.93;;;3.17;;
20478;SDS011;10398;52.490;13.434;2024-01-11T06:29:37;14.10;;;3.27;;
20478;SDS011;10398;52.490;13.434;2024-01-11T06:32:03;4.50;;;2.27;;
20478;SDS011;10398;52.490;13.434;2024-01-11T06:34:28;14.30;;;3.60;;
20478;SDS011;10398;52.490;13.434;2024-01-11T06:36:54;15.23;;;3.60;;
20478;SDS011;10398;52.490;13.434;2024-01-11T06:39:20;8.97;;;3.70;;
20478;SDS011;10398;52.490;13.434;2024-01-11T06:41:46;13.10;;;3.67;;
20478;SDS011;10398;52.490;13.434;2024-01-11T06:44:11;12.67;;;3.43;;
20478;SDS011;10398;52.490;13.434;2024-01-11T06:46:37;11.17;;;4.27;;
20478;SDS011;10398;52.490;13.434;2024-01-11T06:49:06;11.00;;;3.40;;
20478;SDS011;10398;52.490;13.434;2024-01-11T06:51:32;11.47;;;3.43;;
20478;SDS011;10398;52.490;13.434;2024-01-11T06:53:59;8.40;;;3.70;;
20478;SDS011;10398;52.490;13.434;2024-01-11T06:56:26;12.37;;;4.50;;
20478;SDS011;10398;52.490;13.434;2024-01-11T06:58:52;7.47;;;3.57;;
20478;SDS011;10398;52.490;13.434;2024-01-11T07:01:19;7.97;;;2.43;;
20478;SDS011;10398;52.490;13.434;2024-01-11T07:03:45;16.20;;;4.40;;
20478;SDS011;10398;52.490;13.434;2024-01-11T07:06:11;12.13;;;4.73;;
20478;SDS011;10398;52.490;13.434;2024-01-11T07:08:36;16.80;;;3.70;;
20478;SDS011;10398;52.490;13.434;2024-01-11T07:11:02;17.77;;;4.47;;
20478;SDS011;10398;52.490;13.434;2024-01-11T07:13:29;15.50;;;4.63;;
20478;SDS011;10398;52.490;13.434;2024-01-11T07:15:55;10.70;;;4.33;;
20478;SDS011;10398;52.490;13.434;2024-01-11T07:18:22;9.07;;;2.83;;
20478;SDS011;10398;52.490;13.434;2024-01-11T07:20:47;11.43;;;4.20;;
20478;SDS011;10398;52.490;13.434;2024-01-11T07:23:13;12.17;;;3.77;;
20478;SDS011;10398;52.490;13.434;2024-01-11T07:25:40;13.97;;;4.50;;
20478;SDS011;10398;52.490;13.434;2024-01-11T07:28:06;10.93;;;4.10;;
20478;SDS011;10398;52.490;13.434;2024-01-11T07:30:32;11.17;;;4.67;;
20478;SDS011;10398;52.490;13.434;2024-01-11T07:32:58;14.57;;;4.60;;
20478;SDS011;10398;52.490;13.434;2024-01-11T07:35:23;10.90;;;5.10;;
20478;SDS011;10398;52.490;13.434;2024-01-11T07:37:49;11.80;;;4.23;;
20478;SDS011;10398;52.490;13.434;2024-01-11T07:40:15;22.17;;;4.37;;
20478;SDS011;10398;52.490;13.434;2024-01-11T07:42:42;9.67;;;3.40;;
20478;SDS011;10398;52.490;13.434;2024-01-11T07:45:08;16.23;;;4.50;;
20478;SDS011;10398;52.490;13.434;2024-01-11T07:47:35;10.93;;;3.97;;
20478;SDS011;10398;52.490;13.434;2024-01-11T07:50:03;15.37;;;4.83;;
20478;SDS011;10398;52.490;13.434;2024-01-11T07:52:32;12.50;;;4.70;;
20478;SDS011;10398;52.490;13.434;2024-01-11T07:54:58;14.23;;;4.67;;
20478;SDS011;10398;52.490;13.434;2024-01-11T07:57:31;12.10;;;5.00;;
20478;SDS011;10398;52.490;13.434;2024-01-11T07:59:57;10.67;;;5.00;;
20478;SDS011;10398;52.490;13.434;2024-01-11T08:02:24;8.47;;;3.97;;
20478;SDS011;10398;52.490;13.434;2024-01-11T08:04:50;11.80;;;3.07;;
20478;SDS011;10398;52.490;13.434;2024-01-11T08:07:16;12.77;;;3.70;;
20478;SDS011;10398;52.490;13.434;2024-01-11T08:09:41;16.37;;;4.63;;
20478;SDS011;10398;52.490;13.434;2024-01-11T08:12:10;11.80;;;3.90;;
20478;SDS011;10398;52.490;13.434;2024-01-11T08:14:36;14.77;;;4.20;;
20478;SDS011;10398;52.490;13.434;2024-01-11T08:17:02;7.07;;;3.47;;
20478;SDS011;10398;52.490;13.434;2024-01-11T08:19:29;16.10;;;4.20;;
20478;SDS011;10398;52.490;13.434;2024-01-11T08:21:58;12.67;;;5.07;;
20478;SDS011;10398;52.490;13.434;2024-01-11T08:24:24;10.63;;;3.93;;
20478;SDS011;10398;52.490;13.434;2024-01-11T08:26:50;7.30;;;3.57;;
20478;SDS011;10398;52.490;13.434;2024-01-11T08:29:16;11.90;;;4.43;;
20478;SDS011;10398;52.490;13.434;2024-01-11T08:31:44;9.87;;;3.87;;
20478;SDS011;10398;52.490;13.434;2024-01-11T08:34:10;11.13;;;3.83;;
20478;SDS011;10398;52.490;13.434;2024-01-11T08:36:36;16.10;;;5.73;;
20478;SDS011;10398;52.490;13.434;2024-01-11T08:39:03;13.47;;;4.80;;
20478;SDS011;10398;52.490;13.434;2024-01-11T08:41:37;14.00;;;4.83;;
20478;SDS011;10398;52.490;13.434;2024-01-11T08:44:03;15.27;;;3.90;;
20478;SDS011;10398;52.490;13.434;2024-01-11T08:46:32;10.63;;;2.93;;
20478;SDS011;10398;52.490;13.434;2024-01-11T08:48:59;16.10;;;4.80;;
20478;SDS011;10398;52.490;13.434;2024-01-11T08:51:28;15.47;;;5.00;;
20478;SDS011;10398;52.490;13.434;2024-01-11T08:53:54;15.33;;;4.80;;
20478;SDS011;10398;52.490;13.434;2024-01-11T08:56:20;9.40;;;4.13;;
20478;SDS011;10398;52.490;13.434;2024-01-11T08:58:46;15.30;;;3.80;;
20478;SDS011;10398;52.490;13.434;2024-01-11T09:01:13;15.23;;;4.27;;
20478;SDS011;10398;52.490;13.434;2024-01-11T09:03:39;12.43;;;5.13;;
20478;SDS011;10398;52.490;13.434;2024-01-11T09:06:04;17.93;;;5.40;;
20478;SDS011;10398;52.490;13.434;2024-01-11T09:08:31;22.50;;;4.97;;
20478;SDS011;10398;52.490;13.434;2024-01-11T09:10:56;20.63;;;5.87;;
20478;SDS011;10398;52.490;13.434;2024-01-11T09:13:26;13.63;;;4.20;;
20478;SDS011;10398;52.490;13.434;2024-01-11T09:15:52;11.53;;;4.03;;
20478;SDS011;10398;52.490;13.434;2024-01-11T09:18:19;14.80;;;5.43;;
20478;SDS011;10398;52.490;13.434;2024-01-11T09:20:45;15.63;;;5.37;;
20478;SDS011;10398;52.490;13.434;2024-01-11T09:23:11;12.70;;;4.23;;
20478;SDS011;10398;52.490;13.434;2024-01-11T09:25:36;11.77;;;4.63;;
20478;SDS011;10398;52.490;13.434;2024-01-11T09:28:02;16.73;;;4.53;;
20478;SDS011;10398;52.490;13.434;2024-01-11T09:30:28;14.47;;;4.93;;
20478;SDS011;10398;52.490;13.434;2024-01-11T09:32:54;14.77;;;6.10;;
20478;SDS011;10398;52.490;13.434;2024-01-11T09:35:21;12.33;;;4.30;;
20478;SDS011;10398;52.490;13.434;2024-01-11T09:37:48;12.53;;;4.50;;
20478;SDS011;10398;52.490;13.434;2024-01-11T09:40:14;16.60;;;5.17;;
20478;SDS011;10398;52.490;13.434;2024-01-11T09:42:41;12.57;;;5.57;;
20478;SDS011;10398;52.490;13.434;2024-01-11T09:45:07;17.53;;;5.03;;
20478;SDS011;10398;52.490;13.434;2024-01-11T09:47:46;13.83;;;6.00;;
20478;SDS011;10398;52.490;13.434;2024-01-11T09:50:13;15.63;;;6.20;;
20478;SDS011;10398;52.490;13.434;2024-01-11T09:52:46;13.73;;;4.60;;
20478;SDS011;10398;52.490;13.434;2024-01-11T09:55:16;15.77;;;5.87;;
20478;SDS011;10398;52.490;13.434;2024-01-11T09:57:47;11.60;;;4.43;;
20478;SDS011;10398;52.490;13.434;2024-01-11T10:00:13;9.80;;;4.53;;
20478;SDS011;10398;52.490;13.434;2024-01-11T10:02:44;10.80;;;4.30;;
20478;SDS011;10398;52.490;13.434;2024-01-11T10:05:11;8.20;;;3.40;;
20478;SDS011;10398;52.490;13.434;2024-01-11T10:07:39;11.33;;;4.30;;
20478;SDS011;10398;52.490;13.434;2024-01-11T10:10:05;17.87;;;4.87;;
20478;SDS011;10398;52.490;13.434;2024-01-11T10:12:34;20.10;;;5.37;;
20478;SDS011;10398;52.490;13.434;2024-01-11T10:15:07;14.57;;;5.07;;
20478;SDS011;10398;52.490;13.434;2024-01-11T10:17:40;12.93;;;4.47;;
20478;SDS011;10398;52.490;13.434;2024-01-11T10:20:07;22.03;;;5.73;;
20478;SDS011;10398;52.490;13.434;2024-01-11T10:22:35;10.93;;;4.73;;
20478;SDS011;10398;52.490;13.434;2024-01-11T10:25:07;15.57;;;5.23;;
20478;SDS011;10398;52.490;13.434;2024-01-11T10:27:36;10.63;;;4.60;;
20478;SDS011;10398;52.490;13.434;2024-01-11T10:30:02;10.73;;;4.73;;
20478;SDS011;10398;52.490;13.434;2024-01-11T10:32:28;12.07;;;5.37;;
20478;SDS011;10398;52.490;13.434;2024-01-11T10:34:54;16.80;;;6.50;;
20478;SDS011;10398;52.490;13.434;2024-01-11T10:37:20;24.97;;;5.23;;
20478;SDS011;10398;52.490;13.434;2024-01-11T10:39:47;26.83;;;6.87;;
20478;SDS011;10398;52.490;13.434;2024-01-11T10:42:15;15.87;;;5.47;;
20478;SDS011;10398;52.490;13.434;2024-01-11T10:44:48;15.83;;;5.73;;
20478;SDS011;10398;52.490;13.434;2024-01-11T10:47:17;17.57;;;4.83;;
20478;SDS011;10398;52.490;13.434;2024-01-11T10:49:44;19.73;;;6.23;;
20478;SDS011;10398;52.490;13.434;2024-01-11T10:52:15;15.90;;;4.83;;
20478;SDS011;10398;52.490;13.434;2024-01-11T10:54:42;31.13;;;6.53;;
20478;SDS011;10398;52.490;13.434;2024-01-11T10:57:08;14.90;;;5.63;;
20478;SDS011;10398;52.490;13.434;2024-01-11T10:59:34;16.03;;;5.90;;
20478;SDS011;10398;52.490;13.434;2024-01-11T11:02:04;19.57;;;5.20;;
20478;SDS011;10398;52.490;13.434;2024-01-11T11:04:37;14.87;;;5.27;;
20478;SDS011;10398;52.490;13.434;2024-01-11T11:07:03;16.23;;;4.90;;
20478;SDS011;10398;52.490;13.434;2024-01-11T11:09:32;15.67;;;5.23;;
20478;SDS011;10398;52.490;13.434;2024-01-11T11:12:00;19.57;;;6.03;;
20478;SDS011;10398;52.490;13.434;2024-01-11T11:14:27;12.87;;;4.93;;
20478;SDS011;10398;52.490;13.434;2024-01-11T11:16:53;18.50;;;5.47;;
20478;SDS011;10398;52.490;13.434;2024-01-11T11:19:20;19.13;;;5.10;;
20478;SDS011;10398;52.490;13.434;2024-01-11T11:21:46;13.73;;;6.07;;
20478;SDS011;10398;52.490;13.434;2024-01-11T11:24:13;16.70;;;4.90;;
20478;SDS011;10398;52.490;13.434;2024-01-11T11:26:41;17.67;;;5.73;;
20478;SDS011;10398;52.490;13.434;2024-01-11T11:29:08;22.73;;;6.60;;
20478;SDS011;10398;52.490;13.434;2024-01-11T11:31:34;14.67;;;5.17;;
20478;SDS011;10398;52.490;13.434;2024-01-11T11:34:06;22.47;;;5.10;;
20478;SDS011;10398;52.490;13.434;2024-01-11T11:36:33;16.27;;;5.53;;
20478;SDS011;10398;52.490;13.434;2024-01-11T11:38:59;16.40;;;6.10;;
20478;SDS011;10398;52.490;13.434;2024-01-11T11:41:26;17.67;;;5.50;;
20478;SDS011;10398;52.490;13.434;2024-01-11T11:43:52;12.67;;;4.97;;
20478;SDS011;10398;52.490;13.434;2024-01-11T11:46:18;16.73;;;5.90;;
20478;SDS011;10398;52.490;13.434;2024-01-11T11:48:47;17.23;;;5.33;;
20478;SDS011;10398;52.490;13.434;2024-01-11T11:51:20;20.10;;;5.17;;
20478;SDS011;10398;52.490;13.434;2024-01-11T11:53:47;20.13;;;5.10;;
20478;SDS011;10398;52.490;13.434;2024-01-11T11:56:13;17.60;;;6.03;;
20478;SDS011;10398;52.490;13.434;2024-01-11T11:58:42;9.73;;;4.27;;
20478;SDS011;10398;52.490;13.434;2024-01-11T12:01:09;12.70;;;4.10;;
20478;SDS011;10398;52.490;13.434;2024-01-11T12:03:35;13.77;;;4.70;;
20478;SDS011;10398;52.490;13.434;2024-01-11T12:06:02;15.53;;;6.20;;
20478;SDS011;10398;52.490;13.434;2024-01-11T12:08:29;14.73;;;5.93;;
20478;SDS011;10398;52.490;13.434;2024-01-11T12:10:55;22.47;;;6.77;;
20478;SDS011;10398;52.490;13.434;2024-01-11T12:13:21;12.17;;;4.50;;
20478;SDS011;10398;52.490;13.434;2024-01-11T12:15:48;12.53;;;5.00;;
20478;SDS011;10398;52.490;13.434;2024-01-11T12:18:14;16.50;;;4.97;;
20478;SDS011;10398;52.490;13.434;2024-01-11T12:20:39;16.20;;;5.30;;
20478;SDS011;10398;52.490;13.434;2024-01-11T12:23:05;16.10;;;5.57;;
20478;SDS011;10398;52.490;13.434;2024-01-11T12:25:31;10.93;;;4.83;;
20478;SDS011;10398;52.490;13.434;2024-01-11T12:27:57;15.00;;;5.20;;
20478;SDS011;10398;52.490;13.434;2024-01-11T12:30:23;19.17;;;3.63;;
20478;SDS011;10398;52.490;13.434;2024-01-11T12:32:55;12.67;;;5.07;;
20478;SDS011;10398;52.490;13.434;2024-01-11T12:35:21;8.30;;;4.03;;
20478;SDS011;10398;52.490;13.434;2024-01-11T12:38:01;15.00;;;4.40;;
20478;SDS011;10398;52.490;13.434;2024-01-11T12:40:31;15.43;;;6.27;;
20478;SDS011;10398;52.490;13.434;2024-01-11T12:42:58;13.80;;;4.70;;
20478;SDS011;10398;52.490;13.434;2024-01-11T12:45:24;13.13;;;5.13;;
20478;SDS011;10398;52.490;13.434;2024-01-11T12:47:54;16.73;;;4.93;;
20478;SDS011;10398;52.490;13.434;2024-01-11T12:50:22;13.63;;;5.40;;
20478;SDS011;10398;52.490;13.434;2024-01-11T12:56:03;16.87;;;6.73;;
20478;SDS011;10398;52.490;13.434;2024-01-11T12:58:35;17.53;;;5.27;;
20478;SDS011;10398;52.490;13.434;2024-01-11T13:01:02;11.37;;;5.30;;
20478;SDS011;10398;52.490;13.434;2024-01-11T13:03:29;17.93;;;6.67;;
20478;SDS011;10398;52.490;13.434;2024-01-11T13:05:56;21.60;;;6.17;;
20478;SDS011;10398;52.490;13.434;2024-01-11T13:08:22;12.60;;;4.77;;
20478;SDS011;10398;52.490;13.434;2024-01-11T13:10:48;12.87;;;4.33;;
20478;SDS011;10398;52.490;13.434;2024-01-11T13:13:15;14.53;;;5.73;;
20478;SDS011;10398;52.490;13.434;2024-01-11T13:15:41;16.50;;;5.60;;
20478;SDS011;10398;52.490;13.434;2024-01-11T13:18:07;12.70;;;4.70;;
20478;SDS011;10398;52.490;13.434;2024-01-11T13:20:33;15.93;;;4.97;;
20478;SDS011;10398;52.490;13.434;2024-01-11T13:23:11;12.03;;;3.60;;
20478;SDS011;10398;52.490;13.434;2024-01-11T13:25:41;8.03;;;3.33;;
20478;SDS011;10398;52.490;13.434;2024-01-11T13:28:09;8.80;;;3.77;;
20478;SDS011;10398;52.490;13.434;2024-01-11T13:30:37;18.23;;;4.60;;
20478;SDS011;10398;52.490;13.434;2024-01-11T13:33:06;14.77;;;5.00;;
20478;SDS011;10398;52.490;13.434;2024-01-11T13:35:34;13.13;;;4.23;;
20478;SDS011;10398;52.490;13.434;2024-01-11T13:38:00;12.23;;;4.57;;
20478;SDS011;10398;52.490;13.434;2024-01-11T13:40:26;12.27;;;4.23;;
20478;SDS011;10398;52.490;13.434;2024-01-11T13:42:54;12.57;;;4.47;;
20478;SDS011;10398;52.490;13.434;2024-01-11T13:45:20;19.17;;;7.13;;
20478;SDS011;10398;52.490;13.434;2024-01-11T13:47:46;23.40;;;7.57;;
20478;SDS011;10398;52.490;13.434;2024-01-11T13:50:12;26.87;;;9.93;;
20478;SDS011;10398;52.490;13.434;2024-01-11T13:52:37;24.80;;;9.50;;
20478;SDS011;10398;52.490;13.434;2024-01-11T13:55:03;21.27;;;8.13;;
20478;SDS011;10398;52.490;13.434;2024-01-11T13:57:29;11.47;;;4.87;;
20478;SDS011;10398;52.490;13.434;2024-01-11T13:59:55;21.40;;;7.17;;
20478;SDS011;10398;52.490;13.434;2024-01-11T14:02:21;19.20;;;7.47;;
20478;SDS011;10398;52.490;13.434;2024-01-11T14:04:47;15.23;;;5.30;;
20478;SDS011;10398;52.490;13.434;2024-01-11T14:07:13;19.47;;;6.20;;
20478;SDS011;10398;52.490;13.434;2024-01-11T14:09:38;18.40;;;5.90;;
20478;SDS011;10398;52.490;13.434;2024-01-11T14:12:04;31.03;;;8.50;;
20478;SDS011;10398;52.490;13.434;2024-01-11T14:14:30;19.60;;;7.90;;
20478;SDS011;10398;52.490;13.434;2024-01-11T14:16:56;23.47;;;7.60;;
20478;SDS011;10398;52.490;13.434;2024-01-11T14:19:21;24.50;;;8.67;;
20478;SDS011;10398;52.490;13.434;2024-01-11T14:21:47;21.57;;;6.63;;
20478;SDS011;10398;52.490;13.434;2024-01-11T14:24:13;21.57;;;6.57;;
20478;SDS011;10398;52.490;13.434;2024-01-11T14:26:39;39.30;;;9.43;;